sensor_id;sensor_type;location;lat;lon;timestamp;P1;durP1;ratioP1;P2;durP2;ratioP2
17955;SDS011;27666;51.498;11.966;2023-09-08T17:51:39;13.80;;;4.93;;
17955;SDS011;27666;51.498;11.966;2023-09-08T17:54:26;5.80;;;4.30;;
17955;SDS011;27666;51.498;11.966;2023-09-08T17:57:12;8.45;;;4.38;;
17955;SDS011;27666;51.498;11.966;2023-09-08T17:59:59;5.55;;;4.38;;
17955;SDS011;27666;51.498;11.966;2023-09-08T18:02:45;6.93;;;4.63;;
17955;SDS011;27666;51.498;11.966;2023-09-08T18:05:32;5.63;;;4.38;;
17955;SDS011;27666;51.498;11.966;2023-09-08T18:08:21;5.80;;;4.63;;
17955;SDS011;27666;51.498;11.966;2023-09-08T18:11:07;6.65;;;4.43;;
17955;SDS011;27666;51.498;11.966;2023-09-08T18:13:54;5.60;;;4.32;;
17955;SDS011;27666;51.498;11.966;2023-09-08T18:16:41;6.35;;;4.13;;
17955;SDS011;27666;51.498;11.966;2023-09-08T18:19:28;6.22;;;4.43;;
17955;SDS011;27666;51.498;11.966;2023-09-08T18:22:14;5.50;;;3.85;;
17955;SDS011;27666;51.498;11.966;2023-09-08T18:25:02;6.13;;;4.38;;
17955;SDS011;27666;51.498;11.966;2023-09-08T18:27:49;6.43;;;4.57;;
17955;SDS011;27666;51.498;11.966;2023-09-08T18:30:36;9.27;;;4.60;;
17955;SDS011;27666;51.498;11.966;2023-09-08T18:33:22;5.78;;;4.55;;
17955;SDS011;27666;51.498;11.966;2023-09-08T18:36:09;6.53;;;4.65;;
17955;SDS011;27666;51.498;11.966;2023-09-08T18:38:57;6.25;;;4.63;;
17955;SDS011;27666;51.498;11.966;2023-09-08T18:41:46;6.40;;;4.50;;
17955;SDS011;27666;51.498;11.966;2023-09-08T18:44:32;6.38;;;4.80;;
17955;SDS011;27666;51.498;11.966;2023-09-08T18:47:24;6.10;;;4.40;;
17955;SDS011;27666;51.498;11.966;2023-09-08T18:50:10;7.60;;;4.75;;
17955;SDS011;27666;51.498;11.966;2023-09-08T18:52:57;6.00;;;4.93;;
17955;SDS011;27666;51.498;11.966;2023-09-08T18:55:43;6.45;;;5.13;;
17955;SDS011;27666;51.498;11.966;2023-09-08T18:58:31;7.68;;;4.82;;
17955;SDS011;27666;51.498;11.966;2023-09-08T19:01:20;6.97;;;4.53;;
17955;SDS011;27666;51.498;11.966;2023-09-08T19:04:07;6.38;;;4.95;;
17955;SDS011;27666;51.498;11.966;2023-09-08T19:06:53;9.82;;;4.50;;
17955;SDS011;27666;51.498;11.966;2023-09-08T19:09:40;12.38;;;5.30;;
17955;SDS011;27666;51.498;11.966;2023-09-08T19:12:27;6.35;;;4.47;;
17955;SDS011;27666;51.498;11.966;2023-09-08T19:15:15;8.18;;;4.50;;
17955;SDS011;27666;51.498;11.966;2023-09-08T19:18:01;8.80;;;5.15;;
17955;SDS011;27666;51.498;11.966;2023-09-08T19:20:48;6.35;;;4.95;;
17955;SDS011;27666;51.498;11.966;2023-09-08T19:23:35;8.32;;;4.80;;
17955;SDS011;27666;51.498;11.966;2023-09-08T19:26:22;6.82;;;5.00;;
17955;SDS011;27666;51.498;11.966;2023-09-08T19:29:08;7.07;;;5.18;;
17955;SDS011;27666;51.498;11.966;2023-09-08T19:31:56;7.80;;;5.03;;
17955;SDS011;27666;51.498;11.966;2023-09-08T19:34:44;8.18;;;5.40;;
17955;SDS011;27666;51.498;11.966;2023-09-08T19:37:30;9.00;;;5.38;;
17955;SDS011;27666;51.498;11.966;2023-09-08T19:40:17;15.10;;;5.22;;
17955;SDS011;27666;51.498;11.966;2023-09-08T19:43:04;10.82;;;5.68;;
17955;SDS011;27666;51.498;11.966;2023-09-08T19:45:53;6.15;;;5.05;;
17955;SDS011;27666;51.498;11.966;2023-09-08T19:48:41;11.23;;;4.88;;
17955;SDS011;27666;51.498;11.966;2023-09-08T19:51:27;10.30;;;5.10;;
17955;SDS011;27666;51.498;11.966;2023-09-08T19:54:15;6.97;;;5.05;;
17955;SDS011;27666;51.498;11.966;2023-09-08T19:57:04;6.72;;;5.30;;
17955;SDS011;27666;51.498;11.966;2023-09-08T19:59:51;9.80;;;5.70;;
17955;SDS011;27666;51.498;11.966;2023-09-08T20:02:39;10.52;;;5.22;;
17955;SDS011;27666;51.498;11.966;2023-09-08T20:05:27;7.93;;;5.95;;
17955;SDS011;27666;51.498;11.966;2023-09-08T20:08:13;6.20;;;5.25;;
17955;SDS011;27666;51.498;11.966;2023-09-08T20:11:00;6.90;;;5.55;;
17955;SDS011;27666;51.498;11.966;2023-09-08T20:13:47;10.73;;;6.28;;
17955;SDS011;27666;51.498;11.966;2023-09-08T20:16:34;7.72;;;5.20;;
17955;SDS011;27666;51.498;11.966;2023-09-08T20:19:20;7.15;;;5.00;;
17955;SDS011;27666;51.498;11.966;2023-09-08T20:22:08;7.65;;;5.38;;
17955;SDS011;27666;51.498;11.966;2023-09-08T20:24:55;7.50;;;5.35;;
17955;SDS011;27666;51.498;11.966;2023-09-08T20:27:42;7.22;;;4.82;;
17955;SDS011;27666;51.498;11.966;2023-09-08T20:30:32;5.85;;;5.22;;
17955;SDS011;27666;51.498;11.966;2023-09-08T20:33:19;7.15;;;5.10;;
17955;SDS011;27666;51.498;11.966;2023-09-08T20:36:05;12.52;;;4.97;;
17955;SDS011;27666;51.498;11.966;2023-09-08T20:38:54;7.13;;;5.20;;
17955;SDS011;27666;51.498;11.966;2023-09-08T20:41:41;6.88;;;5.25;;
17955;SDS011;27666;51.498;11.966;2023-09-08T20:44:27;6.60;;;5.22;;
